Durham, NC

1:31 PM EDT on September 19, 2014 (GMT -0400)
510sRus@ Pinedale Dr | Change Station
CLOSE
Current Station
Personal Weather Station
Location: Durham, NC
Elevation: 531 ft
Nearby Weather Stations

Elev 531 ft 36.03 °N, 78.98 °W | Updated 0 second ago

Partly Cloudy
Partly Cloudy
78.3 °F
Feels Like 80 °F
N
0.0
Wind Variable Wind from ESE
Gusts 1.0 mph

Today
High -- | Low -- °F
--% Chance of Precip.
Yesterday
High -- | Low -- °F
Precip. -- in
7:01 AM 7:17 PM
Waning Crescent, 18% visible
Pressure 30.18 in
Visibility 10.0 miles
Clouds Clear
Heat Index 80 °F
Dew Point 63 °F
Humidity 59%
Rainfall 0.00 in
Snow Depth Not available.
UV 9 out of 12
Pollen 5.90 out of 12
Ozone Good
PM2.5 Good
Flu Activity Not available.
METAR KIGX 191656Z AUTO 09006G15KT 10SM CLR 26/14 A3019 RMK AO2 SLP218 T02560139 TSNO

More Conditions Fewer Conditions

Pressure 30.18 in
Visibility 10.0 miles
Clouds Clear
Heat Index 80 °F
Dew Point 63 °F
Humidity 59%
Rainfall 0.00 in
Snow Depth Not available.
UV 9 out of 12
Pollen 5.90 out of 12
Ozone Good
PM2.5 Good
Flu Activity Not available.
METAR KIGX 191656Z AUTO 09006G15KT 10SM CLR 26/14 A3019 RMK AO2 SLP218 T02560139 TSNO

More Conditions Fewer Conditions

10-Day Weather Forecast

Almanac

Astronomy

Sep. 19, 2014 Rise Set
Actual Time 7:01 AM EDT 7:17 PM EDT
Civil Twilight 6:35 AM EDT 7:42 PM EDT
Nautical Twilight 6:05 AM EDT 8:12 PM EDT
Astronomical Twilight 5:35 AM EDT 8:43 PM EDT
Moon 2:51 AM EDT 4:39 PM EDT
Length of Visible Light 13h 06m
Length of Day
12h 15m
Tomorrow will be 2m 16s shorter.
Waning Crescent, 18% of the Moon is Illuminated
Today
Waning Crescent
Sep 24
New
Oct 1
First Quarter
Oct 8
Full
Oct 15
Last Quarter

Today's Extremes

State Highs State Lows

Community

WunderPhotos

Upload Photos

1,754,663 photos uploaded!

Nearby

Air Quality

  Air Quality AQ Index Pollutant
Yesterday Good
OZONE
Yesterday Good
PM2.5
Current Good
OZONE
Current Good
PM2.5
Friday Good
PM2.5
Friday Good
OZONE
Saturday Good
PM2.5
Saturday Good
OZONE
Sunday Good
PM2.5
Sunday Good
OZONE

Snow Depth

Station Depth Elevation
No new snow has been reported.

Earthquake Activity

City Distance Mag. Time & Date
No recent earthquake activity has been reported nearby.
Minimum magnitude displayed is 2.5.

Coastal Water Temperatures

Place Temperature
No Stations Reporting

Nearby Weather Stations